Time;durP1;ratioP1;P1;durP2;ratioP2;P2;SDS_P1;SDS_P2;PMS_P1;PMS_P2;Temp;Humidity;BMP_temperature;BMP_pressure;BME280_temperature;BME280_humidity;BME280_pressure;Samples;Min_cycle;Max_cycle;Signal;HPM_P1;HPM_P2
2021/07/13 00:00:45;;;;;;;;;9.00;7.00;;;;;-144.77;100.00;61770.03;4744455;30;8821;-86
2021/07/13 00:03:50;;;;;;;;;8.75;7.75;;;;;-144.77;100.00;61770.03;4806212;29;8849;-84
2021/07/13 00:09:21;;;;;;;;;7.50;6.75;;;;;-144.77;100.00;61770.03;4919553;29;8808;-84
2021/07/13 00:11:58;;;;;;;;;;;;;;;;;;;;;
2021/07/13 02:35:08;;;;;;;;;30.75;24.50;;;;;23.63;100.00;100220.59;6218920;22;47398;-86
2021/07/13 03:39:56;;;;;;;;;;;;;;;;;;;;;
2021/07/13 03:46:32;;;;;;;;;;;;;;;;;;;;;
2021/07/13 03:56:34;;;;;;;;;18.00;15.50;;;;;23.77;100.00;100211.41;6009147;23;47139;-84
2021/07/13 04:07:09;;;;;;;;;;;;;;;;;;;;;
2021/07/13 04:10:54;;;;;;;;;17.75;14.75;;;;;23.82;100.00;100225.16;6144447;22;68751;-84
2021/07/13 04:17:20;;;;;;;;;15.00;14.00;;;;;23.85;100.00;100209.75;6293930;22;47076;-84
2021/07/13 04:20:57;;;;;;;;;;;;;;;;;;;;;
2021/07/13 04:23:59;;;;;;;;;;;;;;;;;;;;;
2021/07/13 04:27:03;;;;;;;;;19.25;17.50;;;;;23.82;100.00;100219.84;6244947;22;75833;-84
2021/07/13 04:29:35;;;;;;;;;15.00;13.50;;;;;23.78;100.00;100229.06;6301638;22;47465;-88
2021/07/13 04:43:34;;;;;;;;;23.00;20.75;;;;;23.90;100.00;100225.34;5997713;23;47064;-86
2021/07/13 04:46:31;;;;;;;;;21.00;17.00;;;;;23.92;100.00;100227.88;6033290;23;46894;-85
2021/07/13 04:48:57;;;;;;;;;21.50;17.50;;;;;23.84;100.00;100207.22;6155408;22;46858;-83
2021/07/13 04:51:23;;;;;;;;;22.75;19.50;;;;;23.80;100.00;100216.44;6212144;22;47100;-85
2021/07/13 04:53:49;;;;;;;;;21.75;21.75;;;;;23.82;100.00;100217.16;6218371;22;47222;-84
2021/07/13 04:56:17;;;;;;;;;23.25;17.75;;;;;23.79;100.00;100222.78;6338739;22;46933;-85
2021/07/13 04:58:52;;;;;;;;;29.75;24.25;;;;;23.80;100.00;100237.75;6309992;22;46827;-84
2021/07/13 05:05:25;;;;;;;;;27.00;24.50;;;;;23.75;100.00;100239.97;6133480;23;47086;-86
2021/07/13 05:08:26;;;;;;;;;;;;;;;;;;;;;
2021/07/13 05:11:07;;;;;;;;;;;;;;;;;;;;;
2021/07/13 05:17:44;;;;;;;;;;;;;;;;;;;;;
2021/07/13 05:28:10;;;;;;;;;;;;;;;;;;;;;
2021/07/13 05:41:30;;;;;;;;;26.50;24.00;;;;;23.94;100.00;100271.19;6072618;23;47191;-86
2021/07/13 05:44:44;;;;;;;;;;;;;;;;;;;;;
2021/07/13 05:47:40;;;;;;;;;;;;;;;;;;;;;
2021/07/13 05:50:32;;;;;;;;;21.75;21.00;;;;;24.08;100.00;100256.66;6167196;23;69476;-86
2021/07/13 05:53:07;;;;;;;;;25.50;19.50;;;;;23.98;100.00;100260.13;6180333;23;47991;-86
2021/07/13 05:55:32;;;;;;;;;25.50;24.50;;;;;23.99;100.00;100253.84;6181168;23;46927;-86
2021/07/13 05:58:22;;;;;;;;;24.50;19.75;;;;;23.99;100.00;100258.31;6242204;22;47095;-86
2021/07/13 06:00:51;;;;;;;;;24.25;19.50;;;;;23.92;100.00;100260.69;6309805;22;46954;-86
2021/07/13 06:03:18;;;;;;;;;18.75;16.25;;;;;23.93;100.00;100256.19;6337876;22;47766;-85
2021/07/13 06:05:46;;;;;;;;;23.00;19.00;;;;;23.87;100.00;100262.88;6310001;22;47081;-87
2021/07/13 06:08:35;;;;;;;;;20.50;17.75;;;;;23.83;100.00;100251.66;6309788;22;47013;-85
2021/07/13 06:11:00;;;;;;;;;16.00;15.00;;;;;23.84;100.00;100242.66;6337829;22;46796;-84
2021/07/13 06:13:25;;;;;;;;;7.25;6.00;;;;;23.83;100.00;100246.31;6309921;22;49261;-86
2021/07/13 06:15:51;;;;;;;;;20.50;20.50;;;;;23.84;100.00;100250.66;6338275;22;47012;-86
2021/07/13 06:18:19;;;;;;;;;13.75;11.50;;;;;23.88;100.00;100245.94;6338408;22;46918;-86
2021/07/13 06:21:46;;;;;;;;;16.75;14.25;;;;;23.88;100.00;100245.94;6338682;22;46831;-85
2021/07/13 06:24:30;;;;;;;;;22.00;20.25;;;;;23.84;100.00;100241.81;6309508;22;49001;-83
2021/07/13 06:27:22;;;;;;;;;14.00;13.25;;;;;23.91;100.00;100243.00;6309253;22;46816;-84
2021/07/13 06:31:13;;;;;;;;;;;;;;;;;;;;;
2021/07/13 06:34:18;;;;;;;;;;;;;;;;;;;;;
2021/07/13 06:36:38;;;;;;;;;21.25;19.25;;;;;23.80;100.00;100235.09;6298036;22;47011;-84
2021/07/13 06:39:14;;;;;;;;;30.25;25.00;;;;;23.97;100.00;100242.47;6304083;22;47203;-84
2021/07/13 06:41:53;;;;;;;;;22.75;20.75;;;;;24.01;100.00;100240.38;6304059;22;46866;-85
2021/07/13 06:44:19;;;;;;;;;30.75;28.25;;;;;24.00;100.00;100244.03;6304228;22;47189;-84
2021/07/13 06:47:00;;;;;;;;;;;;;;;;;;;;;
2021/07/13 06:49:26;;;;;;;;;20.50;19.00;;;;;23.92;100.00;100235.84;6304520;22;75413;-84
2021/07/13 06:51:52;;;;;;;;;26.00;24.25;;;;;23.97;100.00;100231.81;6304083;22;46901;-84
2021/07/13 06:54:36;;;;;;;;;;;;;;;;;;;;;
2021/07/13 06:57:23;;;;;;;;;29.25;26.75;;;;;24.03;100.00;100236.63;6304850;22;77324;-84
2021/07/13 06:59:49;;;;;;;;;27.75;24.00;;;;;24.02;100.00;100236.72;6306435;22;47098;-85
2021/07/13 07:02:15;;;;;;;;;28.00;22.00;;;;;24.04;100.00;100230.28;6306163;22;47089;-85
2021/07/13 07:04:49;;;;;;;;;21.25;19.25;;;;;24.10;100.00;100215.59;6304321;22;46947;-85
2021/07/13 07:07:15;;;;;;;;;27.00;25.75;;;;;24.11;100.00;100229.75;6307515;22;46968;-84
2021/07/13 07:09:46;;;;;;;;;20.50;19.25;;;;;24.12;100.00;100220.78;6305424;22;46967;-84
2021/07/13 07:12:12;;;;;;;;;18.00;15.50;;;;;24.13;100.00;100219.81;6307848;22;46861;-85
2021/07/13 07:14:37;;;;;;;;;25.50;22.75;;;;;24.18;100.00;100212.22;6307730;22;46943;-84
2021/07/13 07:17:03;;;;;;;;;23.00;19.25;;;;;24.27;100.00;100195.44;6307911;22;46928;-85
2021/07/13 07:19:32;;;;;;;;;21.75;19.75;;;;;24.31;100.00;100203.97;6307605;22;46933;-87
2021/07/13 07:22:00;;;;;;;;;21.75;20.00;;;;;24.35;100.00;100195.56;6307887;22;46867;-84
2021/07/13 07:24:29;;;;;;;;;30.75;24.50;;;;;24.44;100.00;100209.06;6307844;22;47185;-84
2021/07/13 07:26:57;;;;;;;;;22.75;19.00;;;;;24.58;100.00;100211.31;6307809;22;46993;-84
2021/07/13 07:29:43;;;;;;;;;18.00;16.75;;;;;24.65;100.00;100219.59;6306204;22;46848;-84
2021/07/13 07:32:20;;;;;;;;;20.50;19.00;;;;;24.74;100.00;100221.44;6338037;22;46803;-84
2021/07/13 07:34:45;;;;;;;;;22.50;17.50;;;;;24.80;100.00;100226.19;6339607;22;46956;-84
2021/07/13 07:37:11;;;;;;;;;24.50;22.75;;;;;24.86;100.00;100240.81;6339393;22;47129;-86
2021/07/13 07:39:54;;;;;;;;;25.00;23.25;;;;;24.86;100.00;100262.13;6339337;22;46933;-85
2021/07/13 07:42:32;;;;;;;;;26.50;22.25;;;;;24.78;100.00;100268.19;6338702;22;46919;-88
2021/07/13 07:45:00;;;;;;;;;22.00;21.00;;;;;24.69;100.00;100253.88;6338877;22;47053;-88
2021/07/13 07:47:28;;;;;;;;;24.50;20.00;;;;;24.71;100.00;100259.88;6310617;22;49345;-86
2021/07/13 07:49:53;;;;;;;;;22.25;18.25;;;;;24.73;100.00;100252.56;6310160;22;46908;-85
2021/07/13 08:05:43;;;;;;;;;;;;;;;;;;;;;
2021/07/13 08:22:37;;;;;;;;;;;;;;;;;;;;;
2021/07/13 08:25:04;;;;;;;;;18.50;17.75;;;;;25.08;100.00;100283.16;6243806;22;75471;-83
2021/07/13 08:27:29;;;;;;;;;17.00;16.00;;;;;24.93;100.00;100279.25;6245046;22;46919;-89
2021/07/13 08:29:56;;;;;;;;;15.50;13.50;;;;;24.89;100.00;100270.69;6245136;22;46727;-88
2021/07/13 08:32:21;;;;;;;;;15.50;12.50;;;;;24.80;100.00;100258.19;6217678;22;47195;-88
2021/07/13 08:34:47;;;;;;;;;13.75;13.00;;;;;24.80;100.00;100250.19;6245247;22;47223;-89
2021/07/13 08:37:46;;;;;;;;;;;;;;;;;;;;;
2021/07/13 09:11:21;;;;;;;;;;;;;;;;;;;;;
2021/07/13 09:14:24;;;;;;;;;;;;;;;;;;;;;
2021/07/13 09:20:21;;;;;;;;;10.75;9.00;;;;;25.21;100.00;100279.38;6126270;22;47141;-89
2021/07/13 09:22:59;;;;;;;;;13.00;11.50;;;;;25.28;100.00;100285.81;6214739;22;46913;-88
2021/07/13 09:25:35;;;;;;;;;17.00;13.00;;;;;25.31;100.00;100282.91;6214676;22;47750;-88
2021/07/13 09:28:04;;;;;;;;;12.75;10.50;;;;;25.30;100.00;100291.03;6213856;22;46898;-87
2021/07/13 09:30:33;;;;;;;;;15.50;14.00;;;;;25.24;100.00;100289.75;6214310;22;47055;-87
2021/07/13 09:33:27;;;;;;;;;24.00;21.75;;;;;25.22;100.00;100295.25;6214533;22;46942;-87
2021/07/13 09:36:07;;;;;;;;;10.00;10.00;;;;;25.23;100.00;100283.59;6201322;22;49603;-87
2021/07/13 09:38:38;;;;;;;;;10.75;8.25;;;;;25.26;100.00;100285.09;6214005;22;46886;-87
2021/07/13 09:41:21;;;;;;;;;11.50;10.75;;;;;25.19;100.00;100279.53;6213914;22;46925;-87
2021/07/13 09:43:54;;;;;;;;;8.75;8.00;;;;;25.18;100.00;100282.34;6214001;22;46759;-87
2021/07/13 09:46:36;;;;;;;;;15.00;14.00;;;;;25.15;100.00;100287.97;6214085;22;47906;-87
2021/07/13 09:49:23;;;;;;;;;14.25;13.00;;;;;25.06;100.00;100295.81;6213841;22;47068;-87
2021/07/13 09:52:04;;;;;;;;;14.00;14.00;;;;;25.04;100.00;100296.94;6212484;22;46941;-88
